createdAt,value
2018-08-23T00:02:15.664Z,100372.84
2018-08-23T00:04:43.771Z,100372.84
2018-08-23T00:07:15.377Z,100376.03
2018-08-23T00:09:44.166Z,100377.11
2018-08-23T00:12:12.239Z,100382.55
2018-08-23T00:14:40.339Z,100380.66
2018-08-23T00:17:08.399Z,100376.31
2018-08-23T00:19:36.467Z,100379.87
2018-08-23T00:22:04.531Z,100387.19
2018-08-23T00:24:32.614Z,100381.16
2018-08-23T00:27:00.698Z,100388.77
2018-08-23T00:29:31.039Z,100386.00
2018-08-23T00:32:03.482Z,100388.45
2018-08-23T00:34:33.770Z,100390.38
2018-08-23T00:37:02.658Z,100383.58
2018-08-23T00:39:30.887Z,100387.92
2018-08-23T00:42:09.240Z,100390.91
2018-08-23T00:44:54.128Z,100390.27
2018-08-23T00:47:24.120Z,100391.67
2018-08-23T00:49:52.228Z,100395.20
2018-08-23T00:52:27.528Z,100389.41
2018-08-23T00:54:56.563Z,100389.64
2018-08-23T00:57:24.635Z,100381.78
2018-08-23T00:59:56.886Z,100379.27
2018-08-23T01:02:24.948Z,100371.70
2018-08-23T01:04:53.029Z,100374.69
2018-08-23T01:07:23.347Z,100372.38
2018-08-23T01:09:51.416Z,100375.02
2018-08-23T01:12:20.242Z,100374.23
2018-08-23T01:14:49.863Z,100375.34
2018-08-23T01:17:18.860Z,100370.20
2018-08-23T01:19:52.385Z,100376.25
2018-08-23T01:22:20.476Z,100371.00
2018-08-23T01:24:49.715Z,100369.64
2018-08-23T01:27:51.464Z,100372.87
2018-08-23T01:30:20.192Z,100367.70
2018-08-23T01:32:48.285Z,100362.78
2018-08-23T01:35:16.369Z,100364.38
2018-08-23T01:37:44.456Z,100363.52
2018-08-23T01:40:12.534Z,100355.84
2018-08-23T01:42:41.635Z,100361.03
2018-08-23T01:45:11.004Z,100353.97
2018-08-23T01:47:43.394Z,100354.73
2018-08-23T01:50:12.203Z,100359.31
2018-08-23T01:52:45.278Z,100358.51
2018-08-23T01:55:14.209Z,100356.86
2018-08-23T01:57:42.330Z,100362.00
2018-08-23T02:00:11.152Z,100362.56
2018-08-23T02:02:39.266Z,100363.89
2018-08-23T02:05:07.704Z,100358.03
2018-08-23T02:07:35.822Z,100353.19
2018-08-23T02:10:04.111Z,100350.20
2018-08-23T02:12:32.175Z,100354.06
2018-08-23T02:15:01.207Z,100354.34
2018-08-23T02:17:33.715Z,100354.77
2018-08-23T02:20:01.891Z,100355.70
2018-08-23T02:22:30.063Z,100352.55
2018-08-23T02:24:58.125Z,100354.27
2018-08-23T02:27:26.237Z,100354.30
2018-08-23T02:29:54.385Z,100359.73
2018-08-23T02:32:22.487Z,100349.34
2018-08-23T02:34:50.620Z,100352.91
2018-08-23T02:37:18.908Z,100348.14
2018-08-23T02:39:47.402Z,100357.25
2018-08-23T02:42:18.435Z,100353.22
2018-08-23T02:44:47.227Z,100355.66
2018-08-23T02:47:16.177Z,100356.83
2018-08-23T02:49:44.420Z,100344.81
2018-08-23T02:52:12.527Z,100352.95
2018-08-23T02:54:40.620Z,100356.49
2018-08-23T02:57:10.091Z,100352.05
2018-08-23T02:59:38.320Z,100351.95
2018-08-23T03:02:12.334Z,100352.77
2018-08-23T03:04:40.496Z,100345.42
2018-08-23T03:07:08.595Z,100340.41
2018-08-23T03:09:37.776Z,100346.97
2018-08-23T03:12:24.351Z,100345.39
2018-08-23T03:14:52.424Z,100340.30
2018-08-23T03:17:35.788Z,100343.31
2018-08-23T03:20:14.055Z,100343.73
2018-08-23T03:22:43.048Z,100342.56
2018-08-23T03:25:12.351Z,100344.70
2018-08-23T03:27:40.432Z,100346.10
2018-08-23T03:30:09.548Z,100351.34
2018-08-23T03:32:37.675Z,100355.11
2018-08-23T03:35:05.809Z,100351.45
2018-08-23T03:37:33.936Z,100358.86
2018-08-23T03:40:02.023Z,100357.61
2018-08-23T03:42:30.112Z,100349.13
2018-08-23T03:44:58.999Z,100353.36
2018-08-23T03:47:27.651Z,100358.66
2018-08-23T03:49:55.769Z,100355.28
2018-08-23T03:52:28.089Z,100356.89
2018-08-23T03:55:01.308Z,100359.95
2018-08-23T03:57:34.651Z,100360.02
2018-08-23T04:00:02.919Z,100359.74
2018-08-23T04:02:31.012Z,100362.86
2018-08-23T04:05:04.920Z,100353.84
2018-08-23T04:07:33.027Z,100357.38
2018-08-23T04:10:01.156Z,100360.23
2018-08-23T04:12:29.347Z,100357.11
2018-08-23T04:15:11.778Z,100353.27
2018-08-23T04:17:39.867Z,100354.30
2018-08-23T04:20:08.073Z,100359.34
2018-08-23T04:22:36.248Z,100355.02
2018-08-23T04:25:04.685Z,100353.67
2018-08-23T04:27:32.832Z,100364.27
2018-08-23T04:30:00.962Z,100362.17
2018-08-23T04:32:34.319Z,100355.87
2018-08-23T04:35:02.477Z,100358.00
2018-08-23T04:37:31.075Z,100368.95
2018-08-23T04:40:03.121Z,100371.72
2018-08-23T04:42:31.276Z,100377.55
2018-08-23T04:45:07.578Z,100364.27
2018-08-23T04:47:35.678Z,100372.76
2018-08-23T04:50:03.791Z,100365.83
2018-08-23T04:52:31.866Z,100366.65
2018-08-23T04:54:59.956Z,100357.53
2018-08-23T04:57:28.055Z,100357.33
2018-08-23T04:59:56.174Z,100359.88
2018-08-23T05:02:24.248Z,100356.87
2018-08-23T05:04:52.317Z,100357.03
2018-08-23T05:07:20.448Z,100364.26
2018-08-23T05:09:48.621Z,100362.28
2018-08-23T05:12:16.824Z,100373.27
2018-08-23T05:14:45.064Z,100368.68
2018-08-23T05:17:13.228Z,100364.36
2018-08-23T05:19:41.332Z,100367.64
2018-08-23T05:22:09.424Z,100359.91
2018-08-23T05:24:37.537Z,100349.03
2018-08-23T05:27:06.059Z,100358.95
2018-08-23T05:29:34.372Z,100368.27
2018-08-23T05:32:02.477Z,100369.42
2018-08-23T05:34:30.571Z,100367.02
2018-08-23T05:36:58.692Z,100364.30
2018-08-23T05:39:39.739Z,100375.01
2018-08-23T05:42:07.868Z,100368.84
2018-08-23T05:44:35.991Z,100371.15
2018-08-23T05:47:04.144Z,100373.95
2018-08-23T05:49:32.262Z,100375.64
2018-08-23T05:52:00.534Z,100384.34
2018-08-23T05:54:28.655Z,100375.80
2018-08-23T05:56:56.824Z,100379.98
2018-08-23T05:59:24.978Z,100371.16
2018-08-23T06:01:53.061Z,100370.50
2018-08-23T06:04:32.437Z,100373.91
2018-08-23T06:07:00.533Z,100374.27
2018-08-23T06:09:28.602Z,100365.41
2018-08-23T06:11:56.683Z,100364.23
2018-08-23T06:14:24.770Z,100366.23
2018-08-23T06:16:56.206Z,100366.03
2018-08-23T06:19:24.624Z,100366.97
2018-08-23T06:21:52.720Z,100367.34
2018-08-23T06:24:20.809Z,100375.55
2018-08-23T06:26:51.932Z,100377.52
2018-08-23T06:29:22.227Z,100371.08
2018-08-23T06:31:58.494Z,100369.77
2018-08-23T06:34:27.877Z,100360.58
2018-08-23T06:36:56.964Z,100357.09
2018-08-23T06:39:25.064Z,100358.20
2018-08-23T06:41:54.149Z,100358.20
2018-08-23T06:44:22.586Z,100354.92
2018-08-23T06:46:50.644Z,100350.84
2018-08-23T06:49:18.730Z,100353.05
2018-08-23T06:51:47.595Z,100347.84
2018-08-23T06:54:15.723Z,100347.33
2018-08-23T06:56:43.816Z,100353.88
2018-08-23T06:59:11.997Z,100348.16
2018-08-23T07:01:45.284Z,100347.83
2018-08-23T07:04:14.234Z,100343.70
2018-08-23T07:06:42.515Z,100343.63
2018-08-23T07:09:16.578Z,100341.67
2018-08-23T07:11:44.946Z,100333.48
2018-08-23T07:14:14.404Z,100343.29
2018-08-23T07:16:43.756Z,100341.34
2018-08-23T07:19:25.902Z,100343.58
2018-08-23T07:21:54.716Z,100344.89
2018-08-23T07:24:40.169Z,100341.86
2018-08-23T07:27:09.630Z,100338.78
2018-08-23T07:29:37.700Z,100336.03
2018-08-23T07:32:07.134Z,100340.91
2018-08-23T07:34:35.729Z,100341.34
2018-08-23T07:37:09.076Z,100340.65
2018-08-23T07:39:37.160Z,100336.22
2018-08-23T07:42:05.263Z,100336.97
2018-08-23T07:44:33.335Z,100338.16
2018-08-23T07:47:01.438Z,100333.77
2018-08-23T07:49:29.510Z,100332.30
2018-08-23T07:51:57.580Z,100337.53
2018-08-23T07:54:25.653Z,100339.94
2018-08-23T07:56:53.732Z,100339.83
2018-08-23T07:59:21.850Z,100343.02
2018-08-23T08:01:49.931Z,100347.27
2018-08-23T08:04:17.994Z,100350.47
2018-08-23T08:06:46.072Z,100345.95
2018-08-23T08:09:14.182Z,100350.02
2018-08-23T08:11:52.455Z,100345.81
2018-08-23T08:14:25.822Z,100350.30
2018-08-23T08:16:58.063Z,100354.36
2018-08-23T08:19:26.280Z,100350.59
2018-08-23T08:21:54.368Z,100349.16
2018-08-23T08:24:22.423Z,100349.00
2018-08-23T08:26:50.500Z,100354.42
2018-08-23T08:29:23.849Z,100357.86
2018-08-23T08:31:51.924Z,100351.00
2018-08-23T08:34:20.414Z,100355.33
2018-08-23T08:36:48.507Z,100348.30
2018-08-23T08:39:16.579Z,100346.14
2018-08-23T08:41:44.665Z,100342.74
2018-08-23T08:44:12.782Z,100347.59
2018-08-23T08:46:40.891Z,100336.26
2018-08-23T08:49:08.962Z,100339.79
2018-08-23T08:51:37.038Z,100332.17
2018-08-23T08:54:05.107Z,100332.64
2018-08-23T08:56:38.475Z,100325.97
2018-08-23T08:59:06.514Z,100319.38
2018-08-23T09:01:34.643Z,100317.98
2018-08-23T09:04:02.757Z,100325.63
2018-08-23T09:06:46.392Z,100309.77
2018-08-23T09:09:34.623Z,100316.09
2018-08-23T09:12:05.184Z,100318.76
2018-08-23T09:14:33.549Z,100312.25
2018-08-23T09:17:39.279Z,100312.13
2018-08-23T09:20:09.460Z,100313.48
2018-08-23T09:22:39.947Z,100309.45
2018-08-23T09:25:11.036Z,100315.18
2018-08-23T09:27:39.060Z,100313.08
2018-08-23T09:30:11.483Z,100303.27
2018-08-23T09:32:39.678Z,100304.72
2018-08-23T09:35:07.811Z,100300.49
2018-08-23T09:37:38.780Z,100300.12
2018-08-23T09:40:07.612Z,100293.81
2018-08-23T09:42:36.607Z,100292.20
2018-08-23T09:45:09.163Z,100296.11
2018-08-23T09:47:37.226Z,100296.56
2018-08-23T09:50:05.818Z,100290.34
2018-08-23T09:52:39.844Z,100290.08
2018-08-23T09:55:09.195Z,100288.60
2018-08-23T09:57:37.788Z,100290.87
2018-08-23T10:00:10.422Z,100283.09
2018-08-23T10:02:43.908Z,100281.03
2018-08-23T10:05:17.251Z,100279.45
2018-08-23T10:07:50.727Z,100278.90
2018-08-23T10:10:24.217Z,100278.77
2018-08-23T10:12:57.703Z,100277.48
2018-08-23T10:15:31.210Z,100280.69
2018-08-23T10:18:04.533Z,100273.59
2018-08-23T10:20:42.660Z,100267.51
2018-08-23T10:23:15.995Z,100266.11
2018-08-23T10:25:45.420Z,100261.13
2018-08-23T10:28:14.696Z,100258.82
2018-08-23T10:30:43.509Z,100257.72
2018-08-23T10:33:11.617Z,100253.18
2018-08-23T10:35:43.884Z,100258.11
2018-08-23T10:38:14.122Z,100259.19
2018-08-23T10:40:42.661Z,100253.55
2018-08-23T10:43:10.783Z,100256.86
2018-08-23T10:45:38.882Z,100255.06
2018-08-23T10:48:12.299Z,100253.48
2018-08-23T10:50:40.469Z,100260.27
2018-08-23T10:53:08.544Z,100258.52
2018-08-23T10:55:36.661Z,100244.47
2018-08-23T10:58:04.731Z,100249.78
2018-08-23T11:00:32.839Z,100243.42
2018-08-23T11:03:00.920Z,100251.14
2018-08-23T11:05:29.075Z,100247.61
2018-08-23T11:08:03.082Z,100234.32
2018-08-23T11:10:36.570Z,100239.28
2018-08-23T11:13:10.060Z,100237.41
2018-08-23T11:15:38.160Z,100236.06
2018-08-23T11:18:11.856Z,100228.50
2018-08-23T11:20:49.039Z,100231.90
2018-08-23T11:23:18.375Z,100223.77
2018-08-23T11:25:46.595Z,100225.36
2018-08-23T11:28:21.292Z,100210.27
2018-08-23T11:30:49.788Z,100212.73
2018-08-23T11:33:17.874Z,100210.05
2018-08-23T11:35:45.959Z,100213.84
2018-08-23T11:38:14.095Z,100209.84
2018-08-23T11:40:42.273Z,100206.20
2018-08-23T11:43:10.354Z,100204.11
2018-08-23T11:45:38.437Z,100200.45
2018-08-23T11:48:06.628Z,100197.08
2018-08-23T11:50:34.773Z,100196.46
2018-08-23T11:53:02.915Z,100187.73
2018-08-23T11:55:30.965Z,100185.30
2018-08-23T11:57:59.180Z,100177.28
2018-08-23T12:00:27.206Z,100172.59
2018-08-23T12:02:55.287Z,100169.05
2018-08-23T12:05:23.371Z,100161.54
2018-08-23T12:07:52.763Z,100167.54
2018-08-23T12:10:21.965Z,100160.93
2018-08-23T12:12:52.364Z,100155.06
2018-08-23T12:15:25.015Z,100157.24
2018-08-23T12:17:53.878Z,100152.81
2018-08-23T12:20:21.994Z,100154.31
2018-08-23T12:22:50.059Z,100148.92
2018-08-23T12:25:18.172Z,100138.68
2018-08-23T12:27:57.479Z,100149.89
2018-08-23T12:30:25.592Z,100139.47
2018-08-23T12:32:53.905Z,100137.27
2018-08-23T12:35:22.127Z,100118.20
2018-08-23T12:38:01.881Z,100132.45
2018-08-23T12:40:36.092Z,100126.88
2018-08-23T12:43:06.532Z,100119.08
2018-08-23T12:45:38.706Z,100117.61
2018-08-23T12:48:07.182Z,100105.94
2018-08-23T12:50:35.992Z,100102.20
2018-08-23T12:53:04.133Z,100100.28
2018-08-23T12:55:32.302Z,100098.71
2018-08-23T12:58:00.387Z,100107.33
2018-08-23T13:00:28.602Z,100105.94
2018-08-23T13:02:56.813Z,100093.34
2018-08-23T13:05:24.864Z,100089.52
2018-08-23T13:07:52.966Z,100094.09
2018-08-23T13:10:21.070Z,100077.09
2018-08-23T13:12:49.175Z,100084.00
2018-08-23T13:15:17.288Z,100077.94
2018-08-23T13:17:45.548Z,100086.88
2018-08-23T13:20:13.696Z,100078.02
2018-08-23T13:22:41.836Z,100074.13
2018-08-23T13:25:12.511Z,100066.28
2018-08-23T13:27:40.743Z,100062.45
2018-08-23T13:30:08.710Z,100061.77
2018-08-23T13:32:36.896Z,100058.41
2018-08-23T13:35:05.105Z,100056.91
2018-08-23T13:37:33.257Z,100055.06
2018-08-23T13:40:01.380Z,100049.66
2018-08-23T13:42:29.597Z,100049.77
2018-08-23T13:44:57.734Z,100049.06
2018-08-23T13:47:25.884Z,100044.80
2018-08-23T13:49:53.967Z,100050.59
2018-08-23T13:52:22.149Z,100037.19
2018-08-23T13:54:50.356Z,100044.13
2018-08-23T13:57:18.657Z,100042.28
2018-08-23T13:59:46.955Z,100032.72
2018-08-23T14:02:15.295Z,100037.66
2018-08-23T14:04:43.428Z,100033.98
2018-08-23T14:07:11.643Z,100035.36
2018-08-23T14:09:39.740Z,100025.44
2018-08-23T14:12:07.930Z,100013.77
2018-08-23T14:14:36.008Z,100024.47
2018-08-23T14:17:04.119Z,100017.55
2018-08-23T14:19:32.207Z,100014.46
2018-08-23T14:22:00.353Z,100012.38
2018-08-23T14:24:28.419Z,100016.55
2018-08-23T14:26:56.540Z,100013.63
2018-08-23T14:29:24.631Z,100004.64
2018-08-23T14:31:52.755Z,100006.84
2018-08-23T14:34:20.819Z,100013.61
2018-08-23T14:36:48.983Z,100005.81
2018-08-23T14:39:17.058Z,100011.47
2018-08-23T14:41:45.199Z,100004.17
2018-08-23T14:44:13.300Z,100001.42
2018-08-23T14:46:46.672Z,100006.82
2018-08-23T14:49:20.234Z,99993.90
2018-08-23T14:51:48.318Z,99988.80
2018-08-23T14:54:21.751Z,99991.39
2018-08-23T14:57:52.296Z,99991.11
2018-08-23T15:00:20.389Z,99981.55
2018-08-23T15:02:48.496Z,99980.97
2018-08-23T15:05:16.615Z,99974.16
2018-08-23T15:07:44.745Z,99966.80
2018-08-23T15:10:12.789Z,99972.11
2018-08-23T15:12:40.947Z,99971.41
2018-08-23T15:15:09.554Z,99966.70
2018-08-23T15:17:37.659Z,99964.30
2018-08-23T15:20:06.047Z,99960.79
2018-08-23T15:22:34.135Z,99953.31
2018-08-23T15:25:02.236Z,99954.75
2018-08-23T15:27:33.603Z,99954.64
2018-08-23T15:30:02.700Z,99951.80
2018-08-23T15:32:30.810Z,99943.05
2018-08-23T15:34:58.882Z,99939.94
2018-08-23T15:37:27.091Z,99935.31
2018-08-23T15:39:55.162Z,99936.14
2018-08-23T15:42:23.239Z,99934.48
2018-08-23T15:44:51.315Z,99939.09
2018-08-23T15:47:19.386Z,99925.62
2018-08-23T15:49:47.463Z,99932.28
2018-08-23T15:52:15.528Z,99934.61
2018-08-23T15:54:43.608Z,99935.31
2018-08-23T15:57:11.735Z,99931.06
2018-08-23T15:59:39.799Z,99936.44
2018-08-23T16:02:07.876Z,99936.92
2018-08-23T16:04:35.937Z,99929.79
2018-08-23T16:07:04.010Z,99928.99
2018-08-23T16:09:32.072Z,99928.17
2018-08-23T16:12:00.133Z,99930.84
2018-08-23T16:14:28.211Z,99927.25
2018-08-23T16:17:01.548Z,99923.55
2018-08-23T16:19:34.977Z,99919.06
2018-08-23T16:22:03.067Z,99918.34
2018-08-23T16:24:31.136Z,99924.14
2018-08-23T16:27:05.196Z,99926.45
2018-08-23T16:29:33.273Z,99917.13
2018-08-23T16:32:01.542Z,99911.59
2018-08-23T16:34:29.576Z,99912.73
2018-08-23T16:36:58.068Z,99907.69
2018-08-23T16:39:26.344Z,99907.81
2018-08-23T16:41:54.415Z,99899.72
2018-08-23T16:44:22.497Z,99908.95
2018-08-23T16:46:50.551Z,99902.75
2018-08-23T16:49:18.631Z,99907.45
2018-08-23T16:51:46.721Z,99903.06
2018-08-23T16:54:14.840Z,99900.90
2018-08-23T16:56:42.908Z,99902.85
2018-08-23T16:59:10.995Z,99901.01
2018-08-23T17:01:39.103Z,99902.85
2018-08-23T17:04:07.174Z,99902.14
2018-08-23T17:06:35.235Z,99902.03
2018-08-23T17:09:03.808Z,99896.39
2018-08-23T17:11:31.890Z,99892.00
2018-08-23T17:13:59.988Z,99885.95
2018-08-23T17:16:33.546Z,99880.63
2018-08-23T17:19:01.665Z,99877.28
2018-08-23T17:21:29.736Z,99889.44
2018-08-23T17:23:57.916Z,99891.16
2018-08-23T17:26:25.991Z,99895.47
2018-08-23T17:28:54.050Z,99894.17
2018-08-23T17:31:22.128Z,99894.52
2018-08-23T17:33:50.200Z,99896.44
2018-08-23T17:36:18.292Z,99889.13
2018-08-23T17:38:46.374Z,99893.14
2018-08-23T17:41:14.451Z,99887.37
2018-08-23T17:43:42.524Z,99889.41
2018-08-23T17:46:10.608Z,99888.38
2018-08-23T17:48:38.687Z,99888.86
2018-08-23T17:51:06.744Z,99889.56
2018-08-23T17:53:34.856Z,99886.41
2018-08-23T17:56:02.944Z,99893.82
2018-08-23T17:58:31.008Z,99898.17
2018-08-23T18:00:59.066Z,99896.33
2018-08-23T18:03:27.195Z,99900.50
2018-08-23T18:05:55.263Z,99902.24
2018-08-23T18:08:23.331Z,99899.34
2018-08-23T18:10:51.384Z,99896.45
2018-08-23T18:13:19.653Z,99907.98
2018-08-23T18:15:53.068Z,99909.37
2018-08-23T18:18:21.604Z,99913.44
2018-08-23T18:20:51.390Z,99918.31
2018-08-23T18:23:19.941Z,99922.53
2018-08-23T18:25:48.237Z,99923.06
2018-08-23T18:28:17.190Z,99924.22
2018-08-23T18:30:45.453Z,99924.03
2018-08-23T18:33:14.275Z,99922.95
2018-08-23T18:35:42.480Z,99925.05
2018-08-23T18:38:10.725Z,99919.54
2018-08-23T18:40:38.917Z,99912.91
2018-08-23T18:43:09.405Z,99923.89
2018-08-23T18:45:38.949Z,99927.11
2018-08-23T18:48:07.400Z,99931.53
2018-08-23T18:50:35.927Z,99947.48
2018-08-23T18:53:04.252Z,99967.97
2018-08-23T18:58:24.043Z,99995.77
2018-08-23T19:00:54.484Z,99993.02
2018-08-23T19:03:23.738Z,99987.47
2018-08-23T19:05:52.751Z,99995.16
2018-08-23T19:08:21.827Z,100002.55
2018-08-23T19:11:02.037Z,100004.83
2018-08-23T19:13:35.868Z,100008.84
2018-08-23T19:16:12.680Z,100017.09
2018-08-23T19:18:47.748Z,100022.38
2018-08-23T19:21:16.622Z,100044.77
2018-08-23T19:23:48.664Z,100077.44
2018-08-23T19:26:19.614Z,100071.44
2018-08-23T19:28:55.112Z,100067.47
2018-08-23T19:31:28.289Z,100055.13
2018-08-23T19:34:03.397Z,100048.45
2018-08-23T19:36:35.930Z,100037.66
2018-08-23T19:42:39.894Z,100030.98
2018-08-23T19:45:12.893Z,100026.48
2018-08-23T19:47:53.186Z,100023.35
2018-08-23T19:50:26.790Z,100022.56
2018-08-23T19:52:59.957Z,100015.66
2018-08-23T19:55:37.427Z,100020.27
2018-08-23T19:58:07.606Z,100029.12
2018-08-23T20:00:39.168Z,100035.09
2018-08-23T20:03:09.778Z,100037.88
2018-08-23T20:05:42.107Z,100043.06
2018-08-23T20:08:13.583Z,100043.89
2018-08-23T20:10:44.080Z,100046.91
2018-08-23T20:13:12.685Z,100052.05
2018-08-23T20:15:42.129Z,100059.32
2018-08-23T20:18:11.275Z,100069.20
2018-08-23T20:20:50.139Z,100080.21
2018-08-23T20:23:37.871Z,100080.48
2018-08-23T20:26:10.465Z,100074.17
2018-08-23T20:28:42.860Z,100067.12
2018-08-23T20:31:17.438Z,100077.39
2018-08-23T20:33:46.375Z,100078.64
2018-08-23T20:36:15.657Z,100072.89
2018-08-23T20:38:46.012Z,100080.05
2018-08-23T20:41:15.469Z,100085.52
2018-08-23T20:43:48.676Z,100084.69
2018-08-23T20:46:19.908Z,100082.25
2018-08-23T20:48:48.648Z,100078.09
2018-08-23T20:51:19.038Z,100072.94
2018-08-23T20:53:49.855Z,100075.59
2018-08-23T20:56:18.100Z,100081.95
2018-08-23T20:58:46.557Z,100074.83
2018-08-23T21:01:14.697Z,100084.31
2018-08-23T21:03:43.446Z,100086.88
2018-08-23T21:06:11.977Z,100086.34
2018-08-23T21:08:41.209Z,100090.78
2018-08-23T21:11:09.822Z,100089.49
2018-08-23T21:13:38.326Z,100093.91
2018-08-23T21:16:07.313Z,100104.23
2018-08-23T21:18:36.668Z,100111.87
2018-08-23T21:21:09.331Z,100108.27
2018-08-23T21:23:40.528Z,100097.38
2018-08-23T21:26:14.649Z,100099.81
2018-08-23T21:28:44.421Z,100103.40
2018-08-23T21:31:13.645Z,100102.56
2018-08-23T21:33:42.429Z,100102.53
2018-08-23T21:36:11.546Z,100110.73
2018-08-23T21:38:39.860Z,100106.64
2018-08-23T21:41:08.018Z,100100.39
2018-08-23T21:43:37.030Z,100104.52
2018-08-23T21:46:05.450Z,100112.94
2018-08-23T21:48:33.504Z,100111.83
2018-08-23T21:51:01.617Z,100109.67
2018-08-23T21:53:29.831Z,100114.02
2018-08-23T21:55:57.975Z,100119.98
2018-08-23T21:58:26.138Z,100125.44
2018-08-23T22:00:54.418Z,100106.55
2018-08-23T22:03:23.184Z,100094.03
2018-08-23T22:05:51.778Z,100099.20
2018-08-23T22:08:19.991Z,100103.09
2018-08-23T22:10:48.171Z,100091.63
2018-08-23T22:13:16.374Z,100087.83
2018-08-23T22:15:46.315Z,100079.11
2018-08-23T22:18:14.791Z,100079.70
2018-08-23T22:20:43.232Z,100075.03
2018-08-23T22:23:11.386Z,100074.78
2018-08-23T22:25:40.146Z,100078.30
2018-08-23T22:28:09.385Z,100087.05
2018-08-23T22:30:38.350Z,100081.01
2018-08-23T22:33:06.943Z,100084.58
2018-08-23T22:35:35.126Z,100076.11
2018-08-23T22:38:03.342Z,100079.20
2018-08-23T22:40:32.510Z,100072.11
2018-08-23T22:43:00.722Z,100076.23
2018-08-23T22:45:29.025Z,100075.16
2018-08-23T22:47:57.208Z,100074.34
2018-08-23T22:50:25.348Z,100076.52
2018-08-23T22:52:53.532Z,100068.10
2018-08-23T22:55:21.764Z,100066.77
2018-08-23T22:57:49.948Z,100069.75
2018-08-23T23:00:18.609Z,100071.64
2018-08-23T23:02:47.392Z,100062.36
2018-08-23T23:05:15.761Z,100059.11
2018-08-23T23:07:43.811Z,100058.63
2018-08-23T23:10:12.223Z,100050.20
2018-08-23T23:12:40.288Z,100045.00
2018-08-23T23:15:13.587Z,100042.56
2018-08-23T23:17:41.654Z,100035.77
2018-08-23T23:20:09.728Z,100037.37
2018-08-23T23:22:37.899Z,100045.29
2018-08-23T23:25:06.044Z,100043.39
2018-08-23T23:27:34.168Z,100045.05
2018-08-23T23:30:02.322Z,100044.77
2018-08-23T23:32:30.389Z,100042.31
2018-08-23T23:34:58.443Z,100041.51
2018-08-23T23:37:26.532Z,100046.95
2018-08-23T23:39:54.591Z,100053.48
2018-08-23T23:42:22.678Z,100052.39
2018-08-23T23:44:50.754Z,100048.30
2018-08-23T23:47:18.846Z,100052.68
2018-08-23T23:49:46.917Z,100052.94
2018-08-23T23:52:14.987Z,100053.22
2018-08-23T23:54:43.046Z,100057.28
2018-08-23T23:57:11.136Z,100056.75
2018-08-23T23:59:39.345Z,100055.11
